Time;durP1;ratioP1;P1;durP2;ratioP2;P2;SDS_P1;SDS_P2;PMS_P1;PMS_P2;Temp;Humidity;BMP_temperature;BMP_pressure;BME280_temperature;BME280_humidity;BME280_pressure;Samples;Min_cycle;Max_cycle;Signal;HPM_P1;HPM_P2
2024/02/09 00:00:05;;;;;;;7.47;4.47;;;;;;;;;;772155;181;923412;-62
2024/02/09 00:02:31;;;;;;;9.37;4.53;;;;;;;;;;770520;180;876292;-62
2024/02/09 00:04:57;;;;;;;6.87;4.80;;;;;;;;;;770560;179;911726;-63
2024/02/09 00:07:22;;;;;;;8.50;5.30;;;;;;;;;;771441;181;921511;-63
2024/02/09 00:09:49;;;;;;;6.23;4.27;;;;;;;;;;776977;180;921701;-62
2024/02/09 00:12:16;;;;;;;8.40;4.70;;;;;;;;;;767796;177;919507;-63
2024/02/09 00:14:44;;;;;;;6.13;3.47;;;;;;;;;;770542;180;816996;-63
2024/02/09 00:17:06;;;;;;;6.27;4.17;;;;;;;;;;775111;180;813681;-63
2024/02/09 00:19:32;;;;;;;7.77;3.50;;;;;;;;;;769099;180;919604;-65
2024/02/09 00:21:59;;;;;;;8.40;3.97;;;;;;;;;;769556;181;919841;-64
2024/02/09 00:24:24;;;;;;;8.20;4.90;;;;;;;;;;775104;180;921453;-63
2024/02/09 00:26:49;;;;;;;7.15;4.12;;;;;;;;;;769738;180;918788;-62
2024/02/09 00:29:15;;;;;;;9.60;5.40;;;;;;;;;;770390;180;918705;-61
2024/02/09 00:31:43;;;;;;;6.47;3.40;;;;;;;;;;777979;180;919824;-63
2024/02/09 00:34:07;;;;;;;6.30;3.60;;;;;;;;;;769683;180;919404;-64
2024/02/09 00:36:34;;;;;;;5.67;4.03;;;;;;;;;;770649;180;817932;-64
2024/02/09 00:38:59;;;;;;;10.53;4.43;;;;;;;;;;765792;180;915652;-62
2024/02/09 00:41:25;;;;;;;8.67;5.13;;;;;;;;;;778363;181;817175;-61
2024/02/09 00:43:50;;;;;;;11.00;4.23;;;;;;;;;;773838;180;817508;-64
2024/02/09 00:46:16;;;;;;;6.10;3.57;;;;;;;;;;767472;180;920510;-65
2024/02/09 00:48:42;;;;;;;9.80;5.43;;;;;;;;;;780170;180;714617;-62
2024/02/09 00:51:08;;;;;;;11.57;3.40;;;;;;;;;;773433;180;916898;-62
2024/02/09 00:53:34;;;;;;;9.23;4.73;;;;;;;;;;770256;180;918428;-62
2024/02/09 00:56:00;;;;;;;8.87;3.87;;;;;;;;;;776921;180;896602;-61
2024/02/09 00:58:25;;;;;;;11.47;3.30;;;;;;;;;;763188;181;918965;-62
2024/02/09 01:00:51;;;;;;;4.90;3.23;;;;;;;;;;766852;180;920778;-62
2024/02/09 01:03:20;;;;;;;7.77;3.50;;;;;;;;;;771840;180;919672;-62
2024/02/09 01:05:44;;;;;;;8.00;3.87;;;;;;;;;;761167;181;918926;-66
2024/02/09 01:08:09;;;;;;;6.20;3.53;;;;;;;;;;772100;176;916081;-62
2024/02/09 01:10:35;;;;;;;6.07;4.03;;;;;;;;;;769069;180;922921;-64
2024/02/09 02:46:18;;;;;;;7.07;3.00;;;;;;;;;;772309;180;970696;-64
2024/02/09 03:06:26;;;;;;;6.97;3.53;;;;;;;;;;767176;180;816743;-66
2024/02/09 03:08:51;;;;;;;4.77;2.60;;;;;;;;;;769865;180;919405;-63
2024/02/09 03:11:17;;;;;;;8.30;3.83;;;;;;;;;;774341;180;916121;-62
2024/02/09 03:13:44;;;;;;;7.33;4.30;;;;;;;;;;768577;180;916591;-64
2024/02/09 03:16:09;;;;;;;11.27;3.30;;;;;;;;;;770384;180;936218;-62
2024/02/09 03:18:35;;;;;;;7.00;3.60;;;;;;;;;;769547;180;918363;-62
2024/02/09 03:21:01;;;;;;;9.93;4.00;;;;;;;;;;765765;180;1022950;-62
2024/02/09 03:23:26;;;;;;;7.30;3.43;;;;;;;;;;764303;181;918928;-62
2024/02/09 03:25:53;;;;;;;10.43;4.57;;;;;;;;;;768670;180;920776;-63
2024/02/09 03:28:18;;;;;;;8.97;4.27;;;;;;;;;;771409;179;916489;-64
2024/02/09 03:30:44;;;;;;;12.17;4.67;;;;;;;;;;773560;178;918113;-62
2024/02/09 03:33:11;;;;;;;9.60;3.73;;;;;;;;;;769771;179;798729;-62
2024/02/09 03:35:36;;;;;;;11.47;3.50;;;;;;;;;;776794;180;819134;-65
2024/02/09 03:38:02;;;;;;;10.93;4.00;;;;;;;;;;770504;180;1017371;-63
2024/02/09 03:40:27;;;;;;;11.40;3.43;;;;;;;;;;769749;180;934140;-63
2024/02/09 03:42:53;;;;;;;13.00;4.10;;;;;;;;;;773464;180;919318;-62
2024/02/09 03:45:19;;;;;;;8.70;3.73;;;;;;;;;;770663;180;919345;-62
2024/02/09 03:47:45;;;;;;;11.53;3.70;;;;;;;;;;768619;180;938233;-63
2024/02/09 03:50:11;;;;;;;8.57;3.20;;;;;;;;;;767931;180;918546;-63
2024/02/09 03:52:37;;;;;;;9.53;4.10;;;;;;;;;;776076;180;817105;-63
2024/02/09 03:55:03;;;;;;;17.50;4.60;;;;;;;;;;772376;180;919488;-63
2024/02/09 03:57:29;;;;;;;15.93;3.60;;;;;;;;;;770934;180;818513;-64
2024/02/09 03:59:54;;;;;;;6.47;3.33;;;;;;;;;;776723;180;819095;-63
2024/02/09 04:02:20;;;;;;;9.23;3.70;;;;;;;;;;770056;180;917627;-63
2024/02/09 04:04:47;;;;;;;7.70;3.13;;;;;;;;;;766577;180;918718;-62
2024/02/09 04:07:13;;;;;;;9.17;3.83;;;;;;;;;;772219;181;850324;-62
2024/02/09 04:09:38;;;;;;;7.93;3.53;;;;;;;;;;764839;181;919137;-64
2024/02/09 04:12:04;;;;;;;10.23;3.80;;;;;;;;;;761673;181;917988;-63
2024/02/09 04:14:30;;;;;;;9.03;3.10;;;;;;;;;;769655;180;1017816;-62
2024/02/09 04:16:56;;;;;;;8.80;3.73;;;;;;;;;;772972;180;919570;-63
2024/02/09 04:19:22;;;;;;;11.13;3.57;;;;;;;;;;767990;179;962131;-63
2024/02/09 04:21:48;;;;;;;13.83;4.30;;;;;;;;;;765794;180;919383;-62
2024/02/09 04:24:19;;;;;;;8.70;3.77;;;;;;;;;;775147;180;815397;-62
2024/02/09 04:26:44;;;;;;;6.40;3.20;;;;;;;;;;770562;179;817806;-63
2024/02/09 04:29:09;;;;;;;6.20;3.35;;;;;;;;;;770997;181;816645;-62
2024/02/09 04:31:35;;;;;;;12.70;3.83;;;;;;;;;;775776;180;911152;-62
2024/02/09 04:34:01;;;;;;;10.67;3.97;;;;;;;;;;755834;183;999627;-63
2024/02/09 04:36:29;;;;;;;6.40;3.60;;;;;;;;;;758260;180;913781;-62
2024/02/09 04:38:53;;;;;;;9.10;3.30;;;;;;;;;;766069;180;921087;-62
2024/02/09 04:41:19;;;;;;;12.13;4.10;;;;;;;;;;773697;179;616222;-64
2024/02/09 04:43:45;;;;;;;14.30;4.47;;;;;;;;;;767422;179;919687;-63
2024/02/09 04:46:11;;;;;;;12.53;3.33;;;;;;;;;;767094;179;909039;-63
2024/02/09 04:48:37;;;;;;;11.23;3.50;;;;;;;;;;773889;180;814768;-64
2024/02/09 04:51:04;;;;;;;9.90;4.03;;;;;;;;;;766420;181;637840;-62
2024/02/09 04:53:30;;;;;;;9.53;3.00;;;;;;;;;;774602;180;630967;-62
2024/02/09 04:55:56;;;;;;;9.50;3.97;;;;;;;;;;770033;180;631756;-65
2024/02/09 04:58:22;;;;;;;9.13;3.23;;;;;;;;;;770183;180;626671;-63
2024/02/09 05:00:49;;;;;;;7.10;3.20;;;;;;;;;;773267;179;633040;-62
2024/02/09 05:03:14;;;;;;;9.07;3.87;;;;;;;;;;772334;180;628732;-62
2024/02/09 05:05:39;;;;;;;5.83;3.07;;;;;;;;;;768280;180;620094;-62
2024/02/09 05:08:06;;;;;;;7.90;3.30;;;;;;;;;;767579;180;630010;-63
2024/02/09 05:10:31;;;;;;;16.08;4.28;;;;;;;;;;769233;180;918433;-62
2024/02/09 05:13:02;;;;;;;6.93;3.30;;;;;;;;;;770930;180;919155;-64
2024/02/09 05:15:23;;;;;;;5.70;3.30;;;;;;;;;;768211;180;814781;-62
2024/02/09 05:17:49;;;;;;;11.93;5.20;;;;;;;;;;766412;180;918704;-63
2024/02/09 05:20:15;;;;;;;7.90;4.00;;;;;;;;;;769246;180;811121;-63
2024/02/09 05:22:41;;;;;;;9.27;3.60;;;;;;;;;;770168;180;616712;-62
2024/02/09 05:25:07;;;;;;;14.37;4.10;;;;;;;;;;767060;180;825192;-64
2024/02/09 05:27:32;;;;;;;6.37;3.67;;;;;;;;;;767345;180;625075;-64
2024/02/09 05:29:58;;;;;;;8.10;4.40;;;;;;;;;;764211;183;617764;-62
2024/02/09 05:32:24;;;;;;;8.93;4.83;;;;;;;;;;765583;181;813853;-63
2024/02/09 05:34:51;;;;;;;8.20;3.80;;;;;;;;;;763749;180;918683;-62
2024/02/09 05:37:17;;;;;;;13.57;5.47;;;;;;;;;;769943;180;817563;-63
2024/02/09 05:39:43;;;;;;;5.13;3.10;;;;;;;;;;769952;180;628111;-63
2024/02/09 05:42:08;;;;;;;12.90;4.70;;;;;;;;;;769666;179;637816;-64
2024/02/09 05:44:33;;;;;;;12.20;4.30;;;;;;;;;;772364;180;631853;-63
2024/02/09 05:47:00;;;;;;;11.77;4.73;;;;;;;;;;766474;180;627402;-64
2024/02/09 05:49:25;;;;;;;7.53;4.40;;;;;;;;;;753883;185;650691;-63
2024/02/09 05:51:52;;;;;;;6.90;4.27;;;;;;;;;;747864;185;613969;-63
2024/02/09 05:54:17;;;;;;;10.87;3.83;;;;;;;;;;752084;185;648026;-64
2024/02/09 05:56:44;;;;;;;12.43;3.70;;;;;;;;;;754768;183;630947;-63
2024/02/09 05:59:11;;;;;;;12.70;5.00;;;;;;;;;;749919;185;636419;-64
2024/02/09 06:01:34;;;;;;;8.70;3.63;;;;;;;;;;774792;179;617089;-63
2024/02/09 06:04:00;;;;;;;9.00;4.03;;;;;;;;;;771612;180;624936;-63
2024/02/09 06:06:26;;;;;;;9.80;3.80;;;;;;;;;;771425;180;712820;-64
2024/02/09 06:08:52;;;;;;;8.50;3.90;;;;;;;;;;776355;180;818383;-62
2024/02/09 06:11:17;;;;;;;6.05;3.33;;;;;;;;;;764554;180;923774;-63
2024/02/09 06:13:45;;;;;;;8.33;4.30;;;;;;;;;;764605;180;923857;-64
2024/02/09 06:16:09;;;;;;;8.43;4.37;;;;;;;;;;772089;179;920575;-63
2024/02/09 06:18:35;;;;;;;12.70;3.87;;;;;;;;;;764488;179;917357;-63
2024/02/09 06:21:02;;;;;;;6.78;4.05;;;;;;;;;;764501;180;917987;-63
2024/02/09 06:23:27;;;;;;;8.33;5.13;;;;;;;;;;766408;180;919713;-63
2024/02/09 06:25:52;;;;;;;12.40;4.13;;;;;;;;;;771265;179;803506;-63
2024/02/09 06:28:18;;;;;;;8.23;4.60;;;;;;;;;;767737;180;912450;-62
2024/02/09 06:30:47;;;;;;;10.10;5.07;;;;;;;;;;767140;181;918679;-63
2024/02/09 06:33:10;;;;;;;9.70;4.73;;;;;;;;;;776367;177;824002;-63
2024/02/09 06:35:36;;;;;;;5.73;3.87;;;;;;;;;;768872;179;910318;-62
2024/02/09 06:38:03;;;;;;;7.40;4.97;;;;;;;;;;762795;181;925408;-63
2024/02/09 06:40:28;;;;;;;10.53;4.23;;;;;;;;;;772065;180;919792;-62
2024/02/09 06:42:53;;;;;;;6.65;4.22;;;;;;;;;;768609;180;918509;-63
2024/02/09 06:45:21;;;;;;;8.17;4.93;;;;;;;;;;771783;180;713464;-65
2024/02/09 06:47:45;;;;;;;8.93;4.97;;;;;;;;;;776707;180;617804;-62
2024/02/09 06:50:11;;;;;;;7.00;5.37;;;;;;;;;;771770;180;918802;-62
2024/02/09 06:52:37;;;;;;;9.73;5.07;;;;;;;;;;767677;180;819724;-62
2024/02/09 06:55:07;;;;;;;7.73;5.80;;;;;;;;;;764325;181;816681;-63
2024/02/09 06:57:30;;;;;;;26.43;7.10;;;;;;;;;;772997;180;918121;-66
2024/02/09 06:59:56;;;;;;;11.13;5.00;;;;;;;;;;769202;180;918668;-62
2024/02/09 07:02:22;;;;;;;18.80;5.23;;;;;;;;;;764303;180;919690;-62
2024/02/09 07:04:50;;;;;;;9.40;5.32;;;;;;;;;;772662;181;919459;-64
2024/02/09 07:07:14;;;;;;;11.30;4.30;;;;;;;;;;767872;180;920919;-62
2024/02/09 07:09:39;;;;;;;8.02;4.72;;;;;;;;;;769452;180;918997;-63
2024/02/09 07:12:06;;;;;;;13.73;4.57;;;;;;;;;;774558;180;922688;-62
2024/02/09 07:14:32;;;;;;;14.17;6.80;;;;;;;;;;770292;180;919207;-63
2024/02/09 07:16:57;;;;;;;9.33;5.00;;;;;;;;;;772609;180;715224;-63
2024/02/09 07:19:23;;;;;;;15.60;5.03;;;;;;;;;;768679;180;824411;-63
2024/02/09 07:21:49;;;;;;;10.70;4.50;;;;;;;;;;774917;180;831761;-62
2024/02/09 07:24:15;;;;;;;9.97;4.70;;;;;;;;;;766378;180;817348;-62
2024/02/09 07:26:41;;;;;;;8.03;3.70;;;;;;;;;;768521;180;912768;-62
2024/02/09 07:29:06;;;;;;;12.03;4.13;;;;;;;;;;771609;181;919525;-62
2024/02/09 07:31:32;;;;;;;8.30;4.40;;;;;;;;;;771527;180;917196;-63
2024/02/09 07:33:58;;;;;;;14.60;4.93;;;;;;;;;;768379;180;914412;-63
2024/02/09 07:36:27;;;;;;;9.70;4.50;;;;;;;;;;773862;179;922878;-64
2024/02/09 07:38:50;;;;;;;9.30;5.20;;;;;;;;;;771618;180;813075;-62
2024/02/09 07:41:19;;;;;;;12.90;3.60;;;;;;;;;;774362;180;915856;-63
2024/02/09 07:43:43;;;;;;;10.38;3.83;;;;;;;;;;765691;181;919737;-63
2024/02/09 07:46:09;;;;;;;14.00;4.03;;;;;;;;;;765095;181;914708;-62
2024/02/09 07:48:35;;;;;;;6.63;4.00;;;;;;;;;;771146;177;919501;-63
2024/02/09 07:51:02;;;;;;;9.07;4.40;;;;;;;;;;773908;180;919393;-63
2024/02/09 07:53:30;;;;;;;10.80;4.90;;;;;;;;;;772808;180;911041;-63
2024/02/09 07:55:52;;;;;;;15.90;6.80;;;;;;;;;;767605;180;917369;-62
2024/02/09 07:58:18;;;;;;;13.90;4.10;;;;;;;;;;759760;181;1632191;-63
2024/02/09 08:00:44;;;;;;;15.00;4.10;;;;;;;;;;776207;180;816421;-64
2024/02/09 08:03:10;;;;;;;9.23;4.53;;;;;;;;;;768768;180;921561;-62
2024/02/09 08:05:36;;;;;;;10.35;5.72;;;;;;;;;;770622;179;807924;-64
2024/02/09 08:08:01;;;;;;;12.03;5.00;;;;;;;;;;772851;180;816381;-62
2024/02/09 08:10:27;;;;;;;10.70;4.80;;;;;;;;;;765244;181;919303;-62
2024/02/09 08:12:54;;;;;;;16.63;7.70;;;;;;;;;;771962;180;805312;-62
2024/02/09 08:15:19;;;;;;;10.83;7.00;;;;;;;;;;768195;180;913552;-64
2024/02/09 08:17:48;;;;;;;10.80;5.90;;;;;;;;;;769507;179;918310;-62
2024/02/09 08:20:11;;;;;;;12.20;5.60;;;;;;;;;;767114;179;915977;-62
2024/02/09 08:22:43;;;;;;;16.98;7.10;;;;;;;;;;772702;179;814142;-64
2024/02/09 08:25:03;;;;;;;13.80;5.83;;;;;;;;;;773604;180;922981;-63
2024/02/09 08:27:29;;;;;;;11.70;5.50;;;;;;;;;;770498;180;823713;-61
2024/02/09 08:29:56;;;;;;;21.13;5.70;;;;;;;;;;768341;180;926341;-63
2024/02/09 08:32:21;;;;;;;16.70;6.03;;;;;;;;;;772727;180;911920;-63
2024/02/09 08:34:47;;;;;;;10.60;6.00;;;;;;;;;;767532;180;1025154;-61
2024/02/09 08:37:13;;;;;;;17.40;8.90;;;;;;;;;;770933;180;827855;-63
2024/02/09 08:39:40;;;;;;;22.87;9.63;;;;;;;;;;764771;180;935766;-64
2024/02/09 08:42:04;;;;;;;14.80;7.43;;;;;;;;;;770309;181;920562;-63
2024/02/09 08:44:30;;;;;;;22.93;11.83;;;;;;;;;;769004;180;920725;-65
2024/02/09 08:46:56;;;;;;;15.27;7.87;;;;;;;;;;768157;180;919384;-61
2024/02/09 08:49:22;;;;;;;15.67;9.90;;;;;;;;;;771843;180;857116;-62
2024/02/09 08:51:49;;;;;;;14.95;8.80;;;;;;;;;;767307;181;919876;-62
2024/02/09 08:54:14;;;;;;;17.20;9.10;;;;;;;;;;769660;180;918804;-62
2024/02/09 08:56:39;;;;;;;21.83;10.57;;;;;;;;;;772870;180;919463;-62
2024/02/09 08:59:06;;;;;;;24.20;11.30;;;;;;;;;;767922;180;919329;-63
2024/02/09 09:01:31;;;;;;;16.83;7.70;;;;;;;;;;763342;180;921173;-61
2024/02/09 09:03:57;;;;;;;25.33;7.20;;;;;;;;;;774361;181;818119;-63
2024/02/09 09:06:23;;;;;;;15.53;8.60;;;;;;;;;;769330;180;818399;-63
2024/02/09 09:08:49;;;;;;;14.73;7.03;;;;;;;;;;771478;180;911706;-63
2024/02/09 09:11:16;;;;;;;12.60;6.00;;;;;;;;;;770336;180;912488;-62
2024/02/09 09:13:40;;;;;;;16.13;6.90;;;;;;;;;;772926;180;876077;-63
2024/02/09 09:16:07;;;;;;;14.70;6.00;;;;;;;;;;771566;180;815281;-65
2024/02/09 09:18:33;;;;;;;12.20;6.30;;;;;;;;;;772076;180;813519;-62
2024/02/09 09:20:58;;;;;;;16.13;6.67;;;;;;;;;;772378;180;920384;-64
2024/02/09 09:23:24;;;;;;;13.43;6.27;;;;;;;;;;768561;180;923216;-64
2024/02/09 09:25:50;;;;;;;16.50;6.50;;;;;;;;;;767389;180;923457;-64
2024/02/09 09:28:17;;;;;;;12.93;6.03;;;;;;;;;;774312;180;822010;-62
2024/02/09 09:30:42;;;;;;;13.90;6.27;;;;;;;;;;768901;180;917437;-65
2024/02/09 09:33:07;;;;;;;11.83;7.43;;;;;;;;;;770835;179;822947;-64
2024/02/09 09:35:33;;;;;;;13.03;7.67;;;;;;;;;;769563;180;885078;-62
2024/02/09 09:37:59;;;;;;;14.60;6.75;;;;;;;;;;776404;180;798930;-62
2024/02/09 09:40:25;;;;;;;14.27;7.63;;;;;;;;;;764145;180;923116;-63
2024/02/09 09:42:52;;;;;;;14.73;7.00;;;;;;;;;;770093;180;874415;-64
2024/02/09 09:45:18;;;;;;;9.83;6.00;;;;;;;;;;773807;180;919012;-63
2024/02/09 09:47:42;;;;;;;11.47;6.90;;;;;;;;;;768208;180;917553;-61
2024/02/09 09:50:10;;;;;;;10.13;6.13;;;;;;;;;;767563;180;1039348;-64
2024/02/09 09:52:37;;;;;;;10.87;6.03;;;;;;;;;;776864;180;908422;-64
2024/02/09 09:55:02;;;;;;;22.40;7.87;;;;;;;;;;769375;180;920122;-64
2024/02/09 09:57:28;;;;;;;15.20;7.93;;;;;;;;;;768901;180;909933;-61
2024/02/09 09:59:54;;;;;;;19.73;7.53;;;;;;;;;;769984;180;853539;-62
2024/02/09 10:02:21;;;;;;;11.50;7.10;;;;;;;;;;770478;179;909912;-63
2024/02/09 10:04:46;;;;;;;11.03;6.27;;;;;;;;;;765761;179;930573;-66
2024/02/09 10:07:15;;;;;;;15.53;8.90;;;;;;;;;;769132;180;918727;-62
2024/02/09 10:09:39;;;;;;;15.90;9.40;;;;;;;;;;774104;180;913669;-64
2024/02/09 10:12:06;;;;;;;13.98;9.30;;;;;;;;;;769091;180;917095;-64
2024/02/09 10:14:31;;;;;;;12.67;7.20;;;;;;;;;;770058;180;785789;-63
2024/02/09 10:16:57;;;;;;;18.57;9.20;;;;;;;;;;773146;180;815796;-65
2024/02/09 10:19:22;;;;;;;13.93;9.80;;;;;;;;;;773156;179;859708;-65
2024/02/09 10:21:48;;;;;;;15.13;9.60;;;;;;;;;;769402;180;919961;-65
2024/02/09 10:24:14;;;;;;;12.70;9.13;;;;;;;;;;773214;180;945655;-66
2024/02/09 10:26:40;;;;;;;18.60;9.77;;;;;;;;;;770061;180;916090;-67
2024/02/09 10:29:06;;;;;;;17.65;9.98;;;;;;;;;;769934;180;919901;-63
2024/02/09 10:31:32;;;;;;;15.70;10.00;;;;;;;;;;770789;180;828988;-65
2024/02/09 10:33:57;;;;;;;14.30;9.13;;;;;;;;;;747567;184;819217;-67
2024/02/09 10:36:23;;;;;;;23.07;10.57;;;;;;;;;;761469;181;818567;-62
2024/02/09 10:38:49;;;;;;;14.43;9.57;;;;;;;;;;766768;179;915980;-67
2024/02/09 10:41:15;;;;;;;15.70;11.70;;;;;;;;;;776580;178;919365;-67
2024/02/09 10:43:41;;;;;;;16.87;10.20;;;;;;;;;;771363;180;815379;-63
2024/02/09 10:46:07;;;;;;;10.93;9.00;;;;;;;;;;766964;179;921017;-65
2024/02/09 10:48:34;;;;;;;16.20;10.07;;;;;;;;;;773337;180;818389;-67
2024/02/09 10:50:59;;;;;;;16.83;8.80;;;;;;;;;;770318;180;919435;-66
2024/02/09 10:53:26;;;;;;;15.93;9.38;;;;;;;;;;773389;179;919197;-66
2024/02/09 10:55:51;;;;;;;15.80;9.97;;;;;;;;;;766970;180;919160;-63
2024/02/09 10:58:19;;;;;;;17.40;10.40;;;;;;;;;;767005;183;819359;-66
2024/02/09 11:00:43;;;;;;;15.50;9.30;;;;;;;;;;767861;179;920323;-66
2024/02/09 11:03:09;;;;;;;15.70;10.65;;;;;;;;;;766847;180;919267;-64
2024/02/09 11:05:36;;;;;;;16.00;9.13;;;;;;;;;;777426;180;817132;-65
2024/02/09 11:08:00;;;;;;;13.80;8.67;;;;;;;;;;772316;181;919306;-64
2024/02/09 11:10:26;;;;;;;16.02;9.35;;;;;;;;;;772292;180;918214;-65
2024/02/09 11:12:56;;;;;;;16.03;9.90;;;;;;;;;;772299;180;909593;-62
2024/02/09 11:15:22;;;;;;;15.63;9.43;;;;;;;;;;771564;179;943273;-63
2024/02/09 11:17:47;;;;;;;16.00;8.83;;;;;;;;;;764320;180;918845;-66
2024/02/09 11:20:13;;;;;;;13.13;8.40;;;;;;;;;;763586;180;918363;-66
2024/02/09 11:22:40;;;;;;;10.13;6.50;;;;;;;;;;774046;180;889933;-68
2024/02/09 11:25:09;;;;;;;13.83;7.67;;;;;;;;;;770840;180;921392;-63
2024/02/09 11:27:35;;;;;;;14.53;7.20;;;;;;;;;;767102;180;920891;-66
2024/02/09 11:29:59;;;;;;;11.03;6.67;;;;;;;;;;776280;180;627398;-63
2024/02/09 11:32:25;;;;;;;9.87;6.47;;;;;;;;;;771010;181;619012;-64
2024/02/09 11:34:53;;;;;;;9.30;6.07;;;;;;;;;;772306;180;813916;-62
2024/02/09 11:37:17;;;;;;;10.40;6.28;;;;;;;;;;771794;179;718031;-62
2024/02/09 11:39:43;;;;;;;10.37;7.10;;;;;;;;;;769291;180;713664;-63
2024/02/09 11:42:10;;;;;;;10.57;6.47;;;;;;;;;;770744;180;814966;-68
2024/02/09 11:44:36;;;;;;;9.60;5.50;;;;;;;;;;775100;177;818993;-62
2024/02/09 11:47:01;;;;;;;9.20;5.93;;;;;;;;;;775470;179;919452;-62
2024/02/09 11:49:27;;;;;;;12.90;5.20;;;;;;;;;;768545;181;916929;-66
2024/02/09 11:51:52;;;;;;;9.97;6.90;;;;;;;;;;770536;179;917516;-63
2024/02/09 11:54:18;;;;;;;11.10;5.40;;;;;;;;;;776156;180;916156;-63
2024/02/09 11:56:44;;;;;;;10.40;5.87;;;;;;;;;;773166;180;919616;-67
2024/02/09 11:59:11;;;;;;;13.83;5.97;;;;;;;;;;776809;179;815766;-68
2024/02/09 12:01:35;;;;;;;9.30;6.10;;;;;;;;;;778269;180;640030;-62
2024/02/09 12:04:01;;;;;;;9.87;5.40;;;;;;;;;;771122;180;632803;-68
2024/02/09 12:06:29;;;;;;;8.97;5.80;;;;;;;;;;770704;180;885845;-61
2024/02/09 12:08:54;;;;;;;9.60;5.30;;;;;;;;;;773656;180;824531;-63
2024/02/09 12:11:20;;;;;;;8.97;5.70;;;;;;;;;;776802;178;904191;-64
2024/02/09 12:13:46;;;;;;;11.67;5.63;;;;;;;;;;759610;181;912397;-69
2024/02/09 12:16:12;;;;;;;7.80;4.78;;;;;;;;;;768181;180;1216382;-63
2024/02/09 12:18:38;;;;;;;10.80;5.93;;;;;;;;;;775015;180;827156;-68
2024/02/09 12:21:04;;;;;;;9.93;5.67;;;;;;;;;;772096;180;917286;-62
2024/02/09 12:23:30;;;;;;;9.75;5.85;;;;;;;;;;768679;180;912630;-63
2024/02/09 12:25:56;;;;;;;8.20;5.37;;;;;;;;;;778165;180;613690;-63
2024/02/09 12:28:23;;;;;;;16.43;6.03;;;;;;;;;;767583;181;637010;-69
2024/02/09 12:30:47;;;;;;;8.27;4.90;;;;;;;;;;771379;180;918843;-68
2024/02/09 12:33:14;;;;;;;9.37;5.60;;;;;;;;;;773963;180;656779;-67
2024/02/09 12:35:41;;;;;;;10.70;5.80;;;;;;;;;;773236;181;750762;-68
2024/02/09 12:38:07;;;;;;;8.83;5.17;;;;;;;;;;770388;181;916464;-68
2024/02/09 12:40:33;;;;;;;9.80;5.80;;;;;;;;;;768932;180;1017297;-68
2024/02/09 12:42:57;;;;;;;8.13;5.70;;;;;;;;;;775408;180;919416;-68
2024/02/09 12:45:26;;;;;;;7.93;5.13;;;;;;;;;;768765;180;918622;-67
2024/02/09 12:47:49;;;;;;;7.27;5.23;;;;;;;;;;766375;180;1020350;-68
2024/02/09 12:50:20;;;;;;;9.77;6.30;;;;;;;;;;771508;180;991469;-68
2024/02/09 12:52:43;;;;;;;11.47;5.97;;;;;;;;;;769387;180;906410;-69
2024/02/09 12:55:07;;;;;;;14.00;5.63;;;;;;;;;;771371;179;917341;-67
2024/02/09 12:57:33;;;;;;;10.20;5.87;;;;;;;;;;777582;180;718502;-69
2024/02/09 12:59:59;;;;;;;8.87;5.10;;;;;;;;;;765004;181;907940;-67
2024/02/09 13:02:24;;;;;;;9.83;5.67;;;;;;;;;;771244;181;816481;-69
2024/02/09 13:04:50;;;;;;;13.17;6.20;;;;;;;;;;769376;180;914402;-68
2024/02/09 13:07:16;;;;;;;12.47;6.17;;;;;;;;;;774658;180;922774;-68
2024/02/09 13:09:43;;;;;;;7.37;5.00;;;;;;;;;;772319;180;916330;-68
2024/02/09 13:12:09;;;;;;;9.67;5.50;;;;;;;;;;771969;180;823816;-68
2024/02/09 13:14:37;;;;;;;7.90;5.05;;;;;;;;;;775103;180;914129;-67
2024/02/09 13:17:00;;;;;;;8.87;5.30;;;;;;;;;;768999;179;909254;-67
2024/02/09 13:19:26;;;;;;;7.43;4.47;;;;;;;;;;767388;177;914430;-69
2024/02/09 13:21:55;;;;;;;8.60;4.90;;;;;;;;;;772357;180;1020576;-68
2024/02/09 13:24:20;;;;;;;12.87;4.97;;;;;;;;;;770382;180;784403;-68
2024/02/09 13:26:47;;;;;;;12.10;4.70;;;;;;;;;;767036;180;919430;-68
2024/02/09 13:29:09;;;;;;;9.90;5.40;;;;;;;;;;768133;180;918868;-68
2024/02/09 13:31:38;;;;;;;7.53;4.33;;;;;;;;;;770075;180;845263;-68
2024/02/09 13:34:01;;;;;;;7.20;4.43;;;;;;;;;;763890;180;917773;-68
2024/02/09 13:36:26;;;;;;;8.48;4.80;;;;;;;;;;769435;180;925642;-68
2024/02/09 13:38:52;;;;;;;9.37;4.93;;;;;;;;;;779391;179;817216;-69
2024/02/09 13:41:18;;;;;;;9.40;5.43;;;;;;;;;;771752;180;918492;-68
2024/02/09 13:43:44;;;;;;;9.83;5.70;;;;;;;;;;768369;180;916372;-68
2024/02/09 13:46:11;;;;;;;8.70;5.57;;;;;;;;;;772706;181;922342;-68
2024/02/09 13:48:36;;;;;;;8.70;4.83;;;;;;;;;;767766;180;844166;-61
2024/02/09 13:51:02;;;;;;;8.73;5.57;;;;;;;;;;768568;180;919478;-68
2024/02/09 13:53:27;;;;;;;7.20;5.00;;;;;;;;;;772474;180;919531;-61
2024/02/09 13:55:53;;;;;;;8.23;4.70;;;;;;;;;;762627;181;909476;-62
2024/02/09 13:58:19;;;;;;;8.80;5.43;;;;;;;;;;770622;180;931293;-68
2024/02/09 14:00:45;;;;;;;10.13;5.33;;;;;;;;;;769264;180;812754;-69
2024/02/09 14:03:11;;;;;;;7.77;4.73;;;;;;;;;;773288;180;715648;-69
2024/02/09 14:05:37;;;;;;;15.63;4.80;;;;;;;;;;768439;180;919298;-68
2024/02/09 14:08:04;;;;;;;8.17;5.67;;;;;;;;;;766364;180;919409;-68
2024/02/09 14:10:29;;;;;;;6.13;4.90;;;;;;;;;;769450;181;812864;-68
2024/02/09 14:12:54;;;;;;;9.80;6.03;;;;;;;;;;764277;179;915724;-68
2024/02/09 14:15:20;;;;;;;7.30;5.37;;;;;;;;;;765281;178;920273;-61
2024/02/09 14:17:46;;;;;;;9.90;6.27;;;;;;;;;;774848;180;1033317;-67
2024/02/09 14:20:13;;;;;;;10.63;5.90;;;;;;;;;;768128;180;919469;-67
2024/02/09 14:22:38;;;;;;;11.05;6.22;;;;;;;;;;768996;180;1126469;-68
2024/02/09 14:25:04;;;;;;;9.30;5.50;;;;;;;;;;766918;179;1025792;-67
2024/02/09 14:27:31;;;;;;;8.53;4.90;;;;;;;;;;775190;179;919488;-67
2024/02/09 14:29:57;;;;;;;12.20;5.17;;;;;;;;;;767521;180;918119;-68
2024/02/09 14:32:22;;;;;;;11.40;5.80;;;;;;;;;;768344;180;877931;-62
2024/02/09 14:34:47;;;;;;;14.10;5.20;;;;;;;;;;775178;180;918611;-62
2024/02/09 14:37:13;;;;;;;9.53;5.20;;;;;;;;;;769156;180;913689;-62
2024/02/09 14:39:39;;;;;;;11.20;6.00;;;;;;;;;;769812;180;939634;-62
2024/02/09 14:42:08;;;;;;;7.37;5.10;;;;;;;;;;772801;179;915826;-67
2024/02/09 14:44:31;;;;;;;10.50;5.30;;;;;;;;;;766056;180;910368;-62
2024/02/09 14:46:57;;;;;;;8.40;5.60;;;;;;;;;;767911;180;917270;-61
2024/02/09 14:49:24;;;;;;;9.60;5.63;;;;;;;;;;771237;180;1020118;-66
2024/02/09 14:51:50;;;;;;;12.90;6.30;;;;;;;;;;773209;180;821492;-67
2024/02/09 14:54:17;;;;;;;9.70;6.77;;;;;;;;;;772098;179;917329;-62
2024/02/09 14:56:42;;;;;;;8.13;5.30;;;;;;;;;;766047;179;817913;-68
2024/02/09 14:59:08;;;;;;;9.53;5.93;;;;;;;;;;769937;180;920602;-62
2024/02/09 15:01:36;;;;;;;8.47;5.53;;;;;;;;;;770641;179;914736;-68
2024/02/09 15:03:59;;;;;;;11.93;6.13;;;;;;;;;;767307;180;918566;-68
2024/02/09 15:06:25;;;;;;;9.97;6.07;;;;;;;;;;772625;180;870783;-67
2024/02/09 15:08:51;;;;;;;9.53;6.73;;;;;;;;;;767402;180;943893;-68
2024/02/09 15:11:19;;;;;;;8.63;6.30;;;;;;;;;;770249;180;806470;-61
2024/02/09 15:13:45;;;;;;;10.57;7.03;;;;;;;;;;768142;180;918970;-62
2024/02/09 15:16:10;;;;;;;9.80;6.83;;;;;;;;;;771535;181;861192;-62
2024/02/09 15:18:36;;;;;;;11.47;6.80;;;;;;;;;;765074;181;923235;-68
2024/02/09 15:21:02;;;;;;;12.90;6.77;;;;;;;;;;766129;180;917588;-67
2024/02/09 15:23:28;;;;;;;7.87;6.17;;;;;;;;;;772837;180;919046;-68
2024/02/09 15:25:54;;;;;;;12.27;7.07;;;;;;;;;;769171;180;926509;-68
2024/02/09 15:28:24;;;;;;;11.67;6.00;;;;;;;;;;770179;180;920743;-68
2024/02/09 15:30:45;;;;;;;13.27;7.23;;;;;;;;;;773888;180;920184;-62
2024/02/09 15:33:12;;;;;;;12.77;8.80;;;;;;;;;;773495;180;928520;-68
2024/02/09 15:35:37;;;;;;;9.93;7.00;;;;;;;;;;768698;180;934237;-61
2024/02/09 15:38:04;;;;;;;13.73;6.53;;;;;;;;;;773305;180;867191;-68
2024/02/09 15:40:30;;;;;;;12.43;7.03;;;;;;;;;;770190;180;801897;-67
2024/02/09 15:42:55;;;;;;;12.23;7.65;;;;;;;;;;769553;179;917786;-68
2024/02/09 15:45:20;;;;;;;13.20;7.50;;;;;;;;;;768619;180;864749;-62
2024/02/09 15:47:46;;;;;;;12.47;8.70;;;;;;;;;;775114;180;895837;-62
2024/02/09 15:50:12;;;;;;;18.70;8.90;;;;;;;;;;768606;180;817713;-67
2024/02/09 15:52:38;;;;;;;10.77;7.00;;;;;;;;;;766700;180;919289;-62
2024/02/09 15:55:07;;;;;;;15.83;8.63;;;;;;;;;;773571;180;919159;-68
2024/02/09 15:57:30;;;;;;;18.00;12.77;;;;;;;;;;769529;180;916777;-62
2024/02/09 15:59:56;;;;;;;14.00;9.43;;;;;;;;;;769375;180;923003;-62
2024/02/09 16:02:22;;;;;;;22.23;10.10;;;;;;;;;;773309;180;918811;-69